Terminal Aerodrome Forecast
Issued by NWS Houston/Galveston TX

Home | Current Version | Previous Version | Text Only | Print | Product List | Glossary On
Versions: 1 2 3 4 5 6 7 8 9 10 11 12 13 14 15 16 17 18 19 20 21 22 23 24 25 26 27 28 29 30 31 32 33 34 35 36 37 38 39 40 41 42 43 44 45 46 47 48 49 50
000
FTUS44 KHGX 050807 AAA
TAFHOU
TAF AMD
KHOU 050807Z 0508/0606 02013KT P6SM -RA VCTS BKN007CB OVC011
      TEMPO 0508/0510 3SM -TSRA BR OVC005CB
     FM051000 03013KT 6SM -RA BR VCTS OVC005CB
     FM051900 35007KT 6SM BR VCSH BKN007 OVC015
     FM060200 29009KT P6SM SCT007 OVC015=

USA.gov is the U.S. government's official web portal to all federal, state and local government web resources and services.